04h44 EST


 

Suivi/Infos de l'aéroport


-ou-


 

Suivi des vols en temps réel9Y-TTC ✈ 01-05-2013 ✈ TTCP / TAB - TTPP / POS

Thumbnail
9Y-TTC / BWA1541
Unknown Owner · Trinidad & Tobago
Crown Point ( – info)
Scarborough, Tobago TT
Piarco Int'l ( – info)
Port-d'Espagne TT
Prévu: 21h45 AST
Prévu: 21h50 AST
Durée: 18 minutes
mercredi, 1 mai 2013
Statut Arrivé il y a plus d'un an. (journal de vol & graphique)
Avion Aerospatiale ATR-42-300 (bi-turbopropulseur) (AT43 – photos)
Vitesse Plan de vol: 532 kts (graphique)
Distance En ligne droite 83 km
Une partie au moins de ce vol se déroule hors de la zone de services primaire de FlightAware. Pour en savoir plus sur la couverture et la zone de services de FlightAware.
JOURNAL DE L'ACTIVITE
Vous voulez une recherche complète sur l'historique de 9Y-TTC depuis 1998? Achetez maintenant. Recevez-le dans l'heure.
Date Avion Provenance Destination Départ Arrivée Durée
27-11-2014 AT72Crown Point ()Piarco Int'l () 21h45 AST 22h03 AST 0:18
27-11-2014 AT72Piarco Int'l ()Crown Point () 20h46 AST 21h02 AST 0:16
27-11-2014 AT72Crown Point ()Piarco Int'l () 19h26 AST 19h44 AST 0:18
27-11-2014 AT72Piarco Int'l ()Crown Point () 18h31 AST 18h48 AST 0:17
27-11-2014 AT72Crown Point ()Piarco Int'l () 17h26 AST 17h44 AST 0:18
27-11-2014 AT72Piarco Int'l ()Crown Point () 16h25 AST 16h40 AST 0:15
27-11-2014 AT72Crown Point ()Piarco Int'l () 15h29 AST 15h48 AST 0:19
27-11-2014 AT72Piarco Int'l ()Crown Point () 14h35 AST 14h51 AST 0:16
27-11-2014 AT72Crown Point ()Piarco Int'l () 13h10 AST 13h41 AST 0:31
27-11-2014 AT72Piarco Int'l ()Crown Point () 12h13 AST 12h31 AST 0:18
27-11-2014 AT72Crown Point ()Piarco Int'l () 11h12 AST 11h30 AST 0:18
27-11-2014 AT72Piarco Int'l ()Crown Point () 10h16 AST 10h29 AST 0:12
27-11-2014 AT72Crown Point ()Piarco Int'l () 08h58 AST 09h15 AST 0:17
27-11-2014 AT72Piarco Int'l ()Crown Point () 08h12 AST 08h28 AST 0:16
27-11-2014 AT72Crown Point ()Piarco Int'l () 07h13 AST 07h30 AST 0:17
27-11-2014 AT72Piarco Int'l ()Crown Point () 06h20 AST 06h36 AST 0:16
25-11-2014 AT72Point Salines Int'l ()Piarco Int'l () 20h08 AST 20h39 AST 0:31
25-11-2014 AT72Piarco Int'l ()Point Salines Int'l () 19h09 AST 19h38 AST 0:28
25-11-2014 AT72Crown Point ()Piarco Int'l () 17h00 AST 17h06 AST 0:05
25-11-2014 AT72Piarco Int'l ()Crown Point () 15h58 AST 16h15 AST 0:16
25-11-2014 AT72Crown Point ()Piarco Int'l () 14h48 AST 14h53 AST 0:05
25-11-2014 AT72Piarco Int'l ()Crown Point () 13h40 AST 13h56 AST 0:15
25-11-2014 AT72Crown Point ()Piarco Int'l () 10h51 AST 11h09 AST 0:18
25-11-2014 AT72Piarco Int'l ()Crown Point () 09h57 AST 10h13 AST (+1) Inconnu
25-11-2014 AT72Crown Point ()Piarco Int'l () 08h55 AST 09h14 AST 0:19
25-11-2014 AT72Piarco Int'l ()Crown Point () 08h06 AST 08h21 AST 0:14
25-11-2014 AT72Crown Point ()Piarco Int'l () 07h06 AST 07h23 AST 0:17
25-11-2014 AT72Piarco Int'l ()Crown Point () 06h18 AST 06h34 AST 0:15
24-11-2014 AT72Crown Point ()Piarco Int'l () 12h47 AST 13h07 AST 0:20
24-11-2014 AT72Piarco Int'l ()Crown Point () 11h50 AST 12h09 AST 0:19
24-11-2014 AT72Crown Point ()Piarco Int'l () 10h43 AST 11h04 AST 0:21
24-11-2014 AT72Piarco Int'l ()Crown Point () 09h47 AST 10h04 AST 0:16
24-11-2014 AT72Point Salines Int'l ()Piarco Int'l () 08h03 AST 08h32 AST 0:29
24-11-2014 AT72Piarco Int'l ()Point Salines Int'l () 06h47 AST 07h21 AST 0:34
24-11-2014 AT72Crown Point ()Piarco Int'l () 03h33 AST 03h41 AST 0:07
24-11-2014 AT72Piarco Int'l ()Crown Point () 02h47 AST 03h04 AST 0:16
23-11-2014 AT72Crown Point ()Piarco Int'l () 21h49 AST 22h10 AST 0:21
23-11-2014 AT72Piarco Int'l ()Crown Point () 21h00 AST 21h17 AST 0:16
23-11-2014 AT72Crown Point ()Piarco Int'l () 19h23 AST 19h40 AST 0:17
23-11-2014 AT72Piarco Int'l ()Crown Point () 18h32 AST 18h47 AST 0:14
23-11-2014 AT72Crown Point ()Piarco Int'l () 17h16 AST 17h39 AST 0:23
23-11-2014 AT72Piarco Int'l ()Crown Point () 16h21 AST 16h39 AST 0:18
23-11-2014 AT72Crown Point ()Piarco Int'l () 15h17 AST 15h35 AST 0:18
23-11-2014 AT72Piarco Int'l ()Crown Point () 14h24 AST 14h42 AST 0:18
23-11-2014 AT72Crown Point ()Piarco Int'l () 12h51 AST 13h07 AST 0:16
23-11-2014 AT72Piarco Int'l ()Crown Point () 12h03 AST 12h19 AST 0:15
23-11-2014 AT72Crown Point ()Piarco Int'l () 11h05 AST 11h20 AST 0:15
23-11-2014 AT72Piarco Int'l ()Crown Point () 10h09 AST 10h24 AST 0:14
23-11-2014 AT72Crown Point ()Piarco Int'l () 09h01 AST 09h17 AST 0:16
23-11-2014 AT72Piarco Int'l ()Crown Point () 08h09 AST 08h24 AST 0:15
23-11-2014 AT72Crown Point ()Piarco Int'l () 07h10 AST 07h27 AST 0:17
23-11-2014 AT72Piarco Int'l ()Crown Point () 06h16 AST 06h31 AST 0:14
22-11-2014 AT72Crown Point ()Piarco Int'l () 13h06 AST 13h22 AST 0:16
22-11-2014 AT72Piarco Int'l ()Crown Point () 12h16 AST 12h35 AST 0:19
22-11-2014 AT72Crown Point ()Piarco Int'l () 11h13 AST 11h31 AST 0:18
22-11-2014 AT72Piarco Int'l ()Crown Point () 10h07 AST 10h25 AST 0:18
22-11-2014 AT72Crown Point ()Piarco Int'l () 09h02 AST 09h20 AST 0:18
22-11-2014 AT72Piarco Int'l ()Crown Point () 08h11 AST 08h29 AST 0:18
22-11-2014 AT72Crown Point ()Piarco Int'l () 07h01 AST 07h20 AST 0:19
22-11-2014 AT72Piarco Int'l ()Crown Point () 06h10 AST 06h27 AST 0:17
21-11-2014 AT72Piarco Int'l ()Crown Point () 15h47 AST 16h06 AST 0:18
21-11-2014 AT72Crown Point ()Piarco Int'l () 12h55 AST 13h07 AST 0:11
21-11-2014 AT72Piarco Int'l ()Crown Point () 11h48 AST 12h05 AST 0:16
21-11-2014 AT72Crown Point ()Piarco Int'l () 10h51 AST 11h08 AST 0:16
21-11-2014 AT72Piarco Int'l ()Crown Point () 09h53 AST 10h10 AST 0:16
21-11-2014 AT72Crown Point ()Piarco Int'l () 08h53 AST 09h09 AST 0:15
21-11-2014 AT72Piarco Int'l ()Crown Point () 07h54 AST 08h13 AST 0:19
21-11-2014 AT72Crown Point ()Piarco Int'l () 06h50 AST 07h09 AST 0:19
21-11-2014 AT72Piarco Int'l ()Crown Point () 05h50 AST 06h14 AST 0:24
20-11-2014 AT72Crown Point ()Piarco Int'l () 19h31 AST 19h49 AST 0:18
20-11-2014 AT72Piarco Int'l ()Crown Point () 18h35 AST 18h50 AST 0:14
20-11-2014 AT72Crown Point ()Piarco Int'l () 17h20 AST 17h41 AST 0:21
20-11-2014 AT72Piarco Int'l ()Crown Point () 16h23 AST 16h38 AST 0:14
20-11-2014 AT72Crown Point ()Piarco Int'l () 15h29 AST 15h41 AST 0:11
20-11-2014 AT72Piarco Int'l ()Crown Point () 14h36 AST 14h51 AST 0:14
20-11-2014 AT72Crown Point ()Piarco Int'l () 13h14 AST 13h34 AST 0:20
20-11-2014 AT72Piarco Int'l ()Crown Point () 12h27 AST 12h44 AST 0:16
20-11-2014 AT72Crown Point ()Piarco Int'l () 11h21 AST 11h34 AST 0:12
20-11-2014 AT72Piarco Int'l ()Crown Point () 10h19 AST 10h36 AST 0:16
20-11-2014 AT72Crown Point ()Piarco Int'l () 09h09 AST 09h28 AST 0:19
20-11-2014 AT72Piarco Int'l ()Crown Point () 08h11 AST 08h29 AST 0:17
20-11-2014 AT72Crown Point ()Piarco Int'l () 07h09 AST 07h26 AST 0:17
20-11-2014 AT72Piarco Int'l ()Crown Point () 06h14 AST 06h30 AST 0:15
19-11-2014 AT72Crown Point ()Piarco Int'l () 19h20 AST 19h38 AST 0:18
19-11-2014 AT72Piarco Int'l ()Crown Point () 18h33 AST 18h49 AST 0:15
19-11-2014 AT72Crown Point ()Piarco Int'l () 17h30 AST 17h48 AST 0:18
19-11-2014 AT72Piarco Int'l ()Crown Point () 16h38 AST 16h56 AST 0:17
19-11-2014 AT72Crown Point ()Piarco Int'l () 15h25 AST 15h43 AST 0:18
19-11-2014 AT72Piarco Int'l ()Crown Point () 14h34 AST 14h51 AST 0:16
18-11-2014 AT72Point Salines Int'l ()Piarco Int'l () 20h24 AST 20h44 AST 0:20
18-11-2014 AT72Piarco Int'l ()Point Salines Int'l () 18h56 AST 19h25 AST 0:28
18-11-2014 AT72Crown Point ()Piarco Int'l () 16h21 AST 16h35 AST 0:13
18-11-2014 AT72Piarco Int'l ()Crown Point () 15h26 AST 15h53 AST 0:26
18-11-2014 AT72Crown Point ()Piarco Int'l () 14h29 AST 14h42 AST 0:12
18-11-2014 AT72Piarco Int'l ()Crown Point () 13h34 AST 13h50 AST 0:15
18-11-2014 AT72Crown Point ()Piarco Int'l () 11h40 AST 12h06 AST 0:26
18-11-2014 AT72Piarco Int'l ()Crown Point () 10h46 AST 11h04 AST 0:17
18-11-2014 AT72Crown Point ()Piarco Int'l () 09h02 AST 09h44 AST 0:42
18-11-2014 AT72Piarco Int'l ()Crown Point () 08h12 AST 08h31 AST 0:19
Les membres inscrits (l'inscription est gratuite et facile!) voient 4 months d'historique. S'inscrire